Weather at Sjenica Airport [CLOSED]

Public forecast

Using degrees Celsius for public forecast. Weather courtesy of forecast.io.

Closest aviation weather report (METAR) to Sjenica Airport

Closest report is Morava Airport, 40.1 nm (74.3 km) NE.

2022/12/01 00:30 (retrieved 16 minutes ago)

LYKV 010030Z 16002KT 9999 SCT025 SCT030 04/03 Q1020 NOSIG

Closest aviation forecast (TAF) to Sjenica Airport

Forecast is more than 12 hours old.

Closest forecast is Kukës International Airport, 76.1 nm (140.9 km) SSE.

2022/11/30 12:00 Ammendment (retrieved 13 hours ago)

TAF AMD LAKU 301529Z 3012/0112 CNL